createdAt,value
2023-03-02T00:03:01.701Z,93688.09
2023-03-02T00:08:05.274Z,93686.47
2023-03-02T00:13:06.850Z,93687.97
2023-03-02T00:18:08.459Z,93689.34
2023-03-02T00:23:11.562Z,93687.03
2023-03-02T00:28:13.117Z,93687.56
2023-03-02T00:33:14.932Z,93681.69
2023-03-02T00:38:17.809Z,93678.94
2023-03-02T00:43:19.392Z,93683.31
2023-03-02T00:48:20.908Z,93692.63
2023-03-02T00:53:23.794Z,93691.66
2023-03-02T00:58:25.977Z,93697.25
2023-03-02T01:03:27.526Z,93690.84
2023-03-02T01:08:30.884Z,93674.97
2023-03-02T01:13:32.438Z,93657.34
2023-03-02T01:18:34.791Z,93663.34
2023-03-02T01:23:37.698Z,93652.28
2023-03-02T01:28:39.203Z,93643.28
2023-03-02T01:33:40.757Z,93635.34
2023-03-02T01:38:43.945Z,93639.16
2023-03-02T01:43:45.473Z,93627.00
2023-03-02T01:48:50.356Z,93630.31
2023-03-02T01:53:56.389Z,93620.59
2023-03-02T01:59:00.816Z,93616.38
2023-03-02T02:04:02.584Z,93612.53
2023-03-02T02:09:07.805Z,93611.97
2023-03-02T02:14:09.878Z,93622.63
2023-03-02T02:19:23.692Z,93612.78
2023-03-02T02:24:33.361Z,93602.97
2023-03-02T02:29:41.325Z,93607.59
2023-03-02T02:34:47.900Z,93603.50
2023-03-02T02:39:50.316Z,93595.97
2023-03-02T02:44:56.230Z,93595.88
2023-03-02T02:49:58.707Z,93605.72
2023-03-02T02:55:00.286Z,93598.59
2023-03-02T03:00:03.493Z,93596.56
2023-03-02T03:05:05.818Z,93594.03
2023-03-02T03:10:14.042Z,93591.06
2023-03-02T03:15:17.238Z,93592.28
2023-03-02T03:20:20.093Z,93595.84
2023-03-02T03:25:25.406Z,93584.25
2023-03-02T03:30:28.372Z,93590.69
2023-03-02T03:35:29.956Z,93584.91
2023-03-02T03:40:31.947Z,93576.72
2023-03-02T03:45:34.951Z,93573.00
2023-03-02T03:50:36.654Z,93589.16
2023-03-02T03:55:38.182Z,93577.69
2023-03-02T04:00:41.052Z,93576.00
2023-03-02T04:05:42.732Z,93590.94
2023-03-02T04:10:44.868Z,93588.88
2023-03-02T04:15:47.800Z,93602.53
2023-03-02T04:20:49.268Z,93592.28
2023-03-02T04:25:50.782Z,93590.94
2023-03-02T04:30:53.774Z,93593.66
2023-03-02T04:35:55.336Z,93599.25
2023-03-02T04:40:57.574Z,93596.66
2023-03-02T04:46:00.447Z,93585.88
2023-03-02T04:51:02.000Z,93590.00
2023-03-02T04:56:04.021Z,93587.97
2023-03-02T05:01:06.932Z,93588.63
2023-03-02T05:06:08.910Z,93595.06
2023-03-02T05:11:12.460Z,93591.91
2023-03-02T05:16:15.607Z,93587.69
2023-03-02T05:21:18.317Z,93591.16
2023-03-02T05:26:19.898Z,93587.00
2023-03-02T05:31:27.475Z,93584.94
2023-03-02T05:36:28.934Z,93588.22
2023-03-02T05:41:30.577Z,93585.19
2023-03-02T05:46:33.876Z,93578.66
2023-03-02T05:51:35.595Z,93584.31
2023-03-02T05:56:37.090Z,93592.00
2023-03-02T06:01:40.034Z,93598.06
2023-03-02T06:06:41.531Z,93597.50
2023-03-02T06:11:43.035Z,93596.97
2023-03-02T06:16:45.969Z,93615.13
2023-03-02T06:21:47.522Z,93606.94
2023-03-02T06:26:49.056Z,93619.09
2023-03-02T06:31:52.174Z,93621.81
2023-03-02T06:36:53.837Z,93612.81
2023-03-02T06:41:55.438Z,93624.28
2023-03-02T06:46:58.370Z,93633.28
2023-03-02T06:51:59.886Z,93624.41
2023-03-02T06:57:01.454Z,93623.19
2023-03-02T07:02:04.411Z,93637.00
2023-03-02T07:07:05.913Z,93640.44
2023-03-02T07:12:07.584Z,93636.72
2023-03-02T07:17:10.569Z,93643.94
2023-03-02T07:22:12.165Z,93641.50
2023-03-02T07:27:13.748Z,93644.81
2023-03-02T07:32:16.724Z,93642.84
2023-03-02T07:37:18.208Z,93643.97
2023-03-02T07:42:19.969Z,93657.75
2023-03-02T07:47:22.940Z,93661.84
2023-03-02T07:52:24.620Z,93665.00
2023-03-02T07:57:26.186Z,93672.94
2023-03-02T08:02:29.093Z,93676.34
2023-03-02T08:07:30.707Z,93677.84
2023-03-02T08:12:32.373Z,93678.28
2023-03-02T08:17:35.226Z,93686.75
2023-03-02T08:22:36.668Z,93681.97
2023-03-02T08:27:38.190Z,93677.06
2023-03-02T08:32:41.212Z,93673.31
2023-03-02T08:37:42.862Z,93675.78
2023-03-02T08:42:44.405Z,93670.72
2023-03-02T08:47:47.290Z,93674.50
2023-03-02T08:52:48.852Z,93675.38
2023-03-02T08:57:50.440Z,93680.44
2023-03-02T09:02:53.334Z,93670.88
2023-03-02T09:07:55.886Z,93673.22
2023-03-02T09:12:57.368Z,93667.69
2023-03-02T09:18:00.398Z,93672.97
2023-03-02T09:23:01.943Z,93672.97
2023-03-02T09:28:03.548Z,93676.88
2023-03-02T09:33:06.474Z,93678.66
2023-03-02T09:38:08.066Z,93685.56
2023-03-02T09:43:22.879Z,93683.63
2023-03-02T09:48:38.399Z,93692.50
2023-03-02T09:53:47.209Z,93688.72
2023-03-02T09:58:55.726Z,93690.38
2023-03-02T10:04:08.080Z,93688.91
2023-03-02T10:09:10.556Z,93675.84
2023-03-02T10:14:17.878Z,93687.38
2023-03-02T10:19:25.047Z,93685.53
2023-03-02T10:24:35.020Z,93686.09
2023-03-02T10:29:47.281Z,93691.28
2023-03-02T10:34:52.326Z,93691.72
2023-03-02T10:39:54.422Z,93707.97
2023-03-02T10:45:00.656Z,93705.00
2023-03-02T10:50:03.631Z,93714.13
2023-03-02T10:55:12.503Z,93709.31
2023-03-02T11:00:18.092Z,93708.06
2023-03-02T11:05:32.819Z,93714.25
2023-03-02T11:10:36.282Z,93705.13
2023-03-02T11:15:45.720Z,93705.19
2023-03-02T11:20:52.671Z,93695.94
2023-03-02T11:25:57.676Z,93709.53
2023-03-02T11:31:02.434Z,93703.72
2023-03-02T11:36:12.409Z,93704.56
2023-03-02T11:41:24.530Z,93707.25
2023-03-02T11:46:28.300Z,93700.09
2023-03-02T11:51:35.513Z,93697.47
2023-03-02T11:56:39.495Z,93702.19
2023-03-02T12:01:42.318Z,93689.72
2023-03-02T12:06:45.523Z,93700.09
2023-03-02T12:11:55.099Z,93682.84
2023-03-02T12:17:17.531Z,93690.28
2023-03-02T12:22:30.038Z,93687.59
2023-03-02T12:27:36.471Z,93680.47
2023-03-02T12:32:38.298Z,93686.28
2023-03-02T12:37:47.057Z,93679.13
2023-03-02T12:43:12.421Z,93682.56
2023-03-02T12:48:26.412Z,93685.69
2023-03-02T12:53:29.796Z,93676.50
2023-03-02T12:58:31.318Z,93674.94
2023-03-02T13:03:33.069Z,93668.13
2023-03-02T13:08:36.234Z,93670.25
2023-03-02T13:13:40.824Z,93661.84
2023-03-02T13:18:42.556Z,93667.84
2023-03-02T13:23:47.712Z,93673.31
2023-03-02T13:28:59.737Z,93676.78
2023-03-02T13:34:01.607Z,93673.59
2023-03-02T13:39:07.566Z,93678.63
2023-03-02T13:44:18.553Z,93680.72
2023-03-02T13:49:28.364Z,93688.38
2023-03-02T13:54:34.169Z,93686.13
2023-03-02T13:59:35.791Z,93675.03
2023-03-02T14:04:37.350Z,93687.66
2023-03-02T14:09:40.272Z,93684.91
2023-03-02T14:14:43.289Z,93691.25
2023-03-02T14:19:45.970Z,93684.56
2023-03-02T14:24:49.183Z,93684.38
2023-03-02T14:29:50.798Z,93682.91
2023-03-02T14:34:52.451Z,93681.72
2023-03-02T14:39:55.832Z,93675.66
2023-03-02T14:44:58.520Z,93670.09
2023-03-02T14:50:01.271Z,93667.56
2023-03-02T14:55:07.733Z,93667.75
2023-03-02T15:00:14.257Z,93667.41
2023-03-02T15:05:15.966Z,93661.56
2023-03-02T15:10:21.237Z,93660.03
2023-03-02T15:15:22.726Z,93664.19
2023-03-02T15:20:24.292Z,93664.75
2023-03-02T15:25:27.777Z,93664.44
2023-03-02T15:30:29.381Z,93664.88
2023-03-02T15:35:31.025Z,93669.13
2023-03-02T15:40:35.327Z,93663.44
2023-03-02T15:45:37.009Z,93667.03
2023-03-02T15:50:38.623Z,93673.84
2023-03-02T15:55:41.704Z,93674.00
2023-03-02T16:00:43.464Z,93669.56
2023-03-02T16:05:45.301Z,93678.38
2023-03-02T16:10:56.867Z,93689.69
2023-03-02T16:16:00.803Z,93678.38
2023-03-02T16:21:02.282Z,93690.75
2023-03-02T16:26:09.458Z,93701.38
2023-03-02T16:31:13.129Z,93704.03
2023-03-02T16:36:14.738Z,93698.13
2023-03-02T16:41:19.554Z,93707.88
2023-03-02T16:46:22.176Z,93715.28
2023-03-02T16:51:23.742Z,93711.13
2023-03-02T16:56:26.641Z,93714.69
2023-03-02T17:01:28.556Z,93718.69
2023-03-02T17:06:30.169Z,93730.13
2023-03-02T17:11:33.076Z,93739.72
2023-03-02T17:16:34.698Z,93732.78
2023-03-02T17:21:36.257Z,93747.13
2023-03-02T17:26:39.131Z,93744.78
2023-03-02T17:31:40.745Z,93752.78
2023-03-02T17:36:42.373Z,93761.84
2023-03-02T17:41:45.250Z,93771.72
2023-03-02T17:46:46.845Z,93776.88
2023-03-02T17:51:48.407Z,93777.16
2023-03-02T17:56:51.557Z,93778.09
2023-03-02T18:01:53.080Z,93781.88
2023-03-02T18:06:54.634Z,93794.41
2023-03-02T18:11:57.530Z,93791.53
2023-03-02T18:16:59.306Z,93797.91
2023-03-02T18:22:01.160Z,93798.28
2023-03-02T18:27:04.147Z,93796.78
2023-03-02T18:32:05.935Z,93803.22
2023-03-02T18:37:07.859Z,93804.34
2023-03-02T18:42:12.750Z,93804.28
2023-03-02T18:47:16.526Z,93810.75
2023-03-02T18:52:18.733Z,93803.31
2023-03-02T18:57:21.608Z,93818.44
2023-03-02T19:02:23.265Z,93812.00
2023-03-02T19:07:24.983Z,93809.50
2023-03-02T19:12:27.926Z,93819.28
2023-03-02T19:17:29.498Z,93825.06
2023-03-02T19:22:31.082Z,93818.28
2023-03-02T19:27:34.193Z,93813.19
2023-03-02T19:32:37.422Z,93815.66
2023-03-02T19:37:38.983Z,93813.72
2023-03-02T19:42:41.818Z,93817.50
2023-03-02T19:47:43.443Z,93806.66
2023-03-02T19:52:45.041Z,93813.56
2023-03-02T19:57:48.376Z,93807.16
2023-03-02T20:02:49.924Z,93812.78
2023-03-02T20:07:52.007Z,93815.50
2023-03-02T20:12:55.027Z,93816.47
2023-03-02T20:17:57.478Z,93825.97
2023-03-02T20:22:59.373Z,93824.69
2023-03-02T20:28:03.762Z,93824.66
2023-03-02T20:33:06.826Z,93831.78
2023-03-02T20:38:10.932Z,93821.84
2023-03-02T20:43:14.132Z,93820.06
2023-03-02T20:48:15.808Z,93837.06
2023-03-02T20:53:18.125Z,93829.22
2023-03-02T20:58:21.103Z,93835.44
2023-03-02T21:03:22.780Z,93834.59
2023-03-02T21:08:24.696Z,93838.94
2023-03-02T21:13:27.579Z,93847.91
2023-03-02T21:18:29.194Z,93845.94
2023-03-02T21:23:30.788Z,93842.38
2023-03-02T21:28:33.597Z,93839.25
2023-03-02T21:33:35.226Z,93844.03
2023-03-02T21:38:36.750Z,93845.25
2023-03-02T21:43:39.674Z,93833.59
2023-03-02T21:48:41.484Z,93828.25
2023-03-02T21:53:43.000Z,93831.03
2023-03-02T21:58:46.610Z,93843.06
2023-03-02T22:03:48.295Z,93830.50
2023-03-02T22:08:50.507Z,93834.84
2023-03-02T22:13:55.411Z,93837.34
2023-03-02T22:18:58.495Z,93839.19
2023-03-02T22:24:20.514Z,93834.22
2023-03-02T22:29:25.522Z,93832.84
2023-03-02T22:34:30.592Z,93834.63
2023-03-02T22:39:33.457Z,93832.59
2023-03-02T22:44:36.415Z,93821.91
2023-03-02T22:49:37.859Z,93817.00
2023-03-02T22:54:39.468Z,93823.84
2023-03-02T22:59:42.351Z,93821.09
2023-03-02T23:04:48.104Z,93823.38
2023-03-02T23:09:49.675Z,93831.75
2023-03-02T23:14:54.652Z,93832.75
2023-03-02T23:19:56.273Z,93835.09
2023-03-02T23:24:57.801Z,93844.34
2023-03-02T23:30:00.741Z,93835.81
2023-03-02T23:35:02.275Z,93842.44
2023-03-02T23:40:04.559Z,93833.16
2023-03-02T23:45:09.289Z,93836.97
2023-03-02T23:50:12.615Z,93835.31
2023-03-02T23:55:14.150Z,93831.47
